Bellwood, Illinois
Current Conditions -  °F | °C
As of 1:51 AM on Wednesday 22 Oct 2014 (Local Time) from KORD Reporting Station
Overcast Overcast  
Wind Chill: 45°   Ceiling: 3000
Heat Index: 47°   Visibility: 10mi
Dew Point: 38°   Wind: 5mph
Humidity: 71%   Direction: 40°NE
Pressure: 30.26"   Gusts: NA
Location:  41.88°N, 87.87°W
Report Text: KORD 220651Z 04004KT 10SM OVC030 08/03 A3026 RMK AO2 SLP249 T00830033
Loading
Personal Weather Stations






























Interactive Weather Map
Tropical Storm Tracking
New forecast layout! Learn more

10-Day Weather Forecast

Advertisements
Track Severe Weather on mobile